sensor_id;sensor_type;location;lat;lon;timestamp;P1;durP1;ratioP1;P2;durP2;ratioP2
64816;SDS011;53289;45.602;11.904;2022-10-16T00:02:06;50.33;;;30.05;;
64816;SDS011;53289;45.602;11.904;2022-10-16T00:04:31;51.80;;;29.17;;
64816;SDS011;53289;45.602;11.904;2022-10-16T00:06:57;53.58;;;32.83;;
64816;SDS011;53289;45.602;11.904;2022-10-16T00:09:24;51.10;;;31.13;;
64816;SDS011;53289;45.602;11.904;2022-10-16T00:11:49;49.42;;;29.13;;
64816;SDS011;53289;45.602;11.904;2022-10-16T00:14:15;48.72;;;29.15;;
64816;SDS011;53289;45.602;11.904;2022-10-16T00:16:41;47.72;;;27.92;;
64816;SDS011;53289;45.602;11.904;2022-10-16T00:19:07;51.13;;;29.90;;
64816;SDS011;53289;45.602;11.904;2022-10-16T00:21:36;51.10;;;30.27;;
64816;SDS011;53289;45.602;11.904;2022-10-16T00:24:03;46.65;;;29.33;;
64816;SDS011;53289;45.602;11.904;2022-10-16T00:26:35;50.67;;;30.98;;
64816;SDS011;53289;45.602;11.904;2022-10-16T00:29:03;48.30;;;29.27;;
64816;SDS011;53289;45.602;11.904;2022-10-16T00:31:29;59.60;;;34.08;;
64816;SDS011;53289;45.602;11.904;2022-10-16T00:33:55;52.60;;;31.80;;
64816;SDS011;53289;45.602;11.904;2022-10-16T00:36:23;51.08;;;29.52;;
64816;SDS011;53289;45.602;11.904;2022-10-16T00:38:51;51.45;;;31.17;;
64816;SDS011;53289;45.602;11.904;2022-10-16T00:41:22;52.03;;;29.90;;
64816;SDS011;53289;45.602;11.904;2022-10-16T00:43:56;54.85;;;33.20;;
64816;SDS011;53289;45.602;11.904;2022-10-16T00:54:26;54.35;;;31.55;;
64816;SDS011;53289;45.602;11.904;2022-10-16T00:56:54;44.88;;;27.25;;
64816;SDS011;53289;45.602;11.904;2022-10-16T00:59:23;44.33;;;27.50;;
64816;SDS011;53289;45.602;11.904;2022-10-16T01:01:54;52.50;;;29.73;;
64816;SDS011;53289;45.602;11.904;2022-10-16T01:04:21;56.60;;;32.08;;
64816;SDS011;53289;45.602;11.904;2022-10-16T01:14:28;54.60;;;31.13;;
64816;SDS011;53289;45.602;11.904;2022-10-16T01:17:04;49.78;;;32.22;;
64816;SDS011;53289;45.602;11.904;2022-10-16T01:22:28;49.42;;;30.35;;
64816;SDS011;53289;45.602;11.904;2022-10-16T01:25:09;50.33;;;31.05;;
64816;SDS011;53289;45.602;11.904;2022-10-16T01:27:45;54.47;;;31.60;;
64816;SDS011;53289;45.602;11.904;2022-10-16T01:30:15;63.70;;;35.45;;
64816;SDS011;53289;45.602;11.904;2022-10-16T01:32:55;48.22;;;28.77;;
64816;SDS011;53289;45.602;11.904;2022-10-16T01:35:48;50.40;;;29.83;;
64816;SDS011;53289;45.602;11.904;2022-10-16T01:41:01;50.72;;;30.20;;
64816;SDS011;53289;45.602;11.904;2022-10-16T01:43:40;50.03;;;28.70;;
64816;SDS011;53289;45.602;11.904;2022-10-16T01:48:39;46.45;;;28.73;;
64816;SDS011;53289;45.602;11.904;2022-10-16T01:51:08;45.53;;;27.27;;
64816;SDS011;53289;45.602;11.904;2022-10-16T01:53:37;47.30;;;27.85;;
64816;SDS011;53289;45.602;11.904;2022-10-16T01:56:06;51.58;;;28.17;;
64816;SDS011;53289;45.602;11.904;2022-10-16T01:58:36;50.17;;;30.20;;
64816;SDS011;53289;45.602;11.904;2022-10-16T02:01:07;54.05;;;31.52;;
64816;SDS011;53289;45.602;11.904;2022-10-16T02:03:37;51.25;;;30.85;;
64816;SDS011;53289;45.602;11.904;2022-10-16T02:06:07;50.65;;;30.77;;
64816;SDS011;53289;45.602;11.904;2022-10-16T02:08:33;50.65;;;28.65;;
64816;SDS011;53289;45.602;11.904;2022-10-16T02:11:00;55.88;;;31.20;;
64816;SDS011;53289;45.602;11.904;2022-10-16T02:16:02;54.97;;;31.35;;
64816;SDS011;53289;45.602;11.904;2022-10-16T02:18:28;53.67;;;31.23;;
64816;SDS011;53289;45.602;11.904;2022-10-16T02:21:07;53.15;;;31.42;;
64816;SDS011;53289;45.602;11.904;2022-10-16T02:23:51;48.88;;;27.58;;
64816;SDS011;53289;45.602;11.904;2022-10-16T02:26:43;57.53;;;31.55;;
64816;SDS011;53289;45.602;11.904;2022-10-16T02:29:33;54.28;;;31.35;;
64816;SDS011;53289;45.602;11.904;2022-10-16T02:32:04;56.08;;;32.22;;
64816;SDS011;53289;45.602;11.904;2022-10-16T02:34:34;55.70;;;31.58;;
64816;SDS011;53289;45.602;11.904;2022-10-16T02:37:01;57.92;;;32.88;;
64816;SDS011;53289;45.602;11.904;2022-10-16T02:39:29;54.63;;;31.15;;
64816;SDS011;53289;45.602;11.904;2022-10-16T02:41:56;55.95;;;33.58;;
64816;SDS011;53289;45.602;11.904;2022-10-16T02:44:22;54.63;;;32.13;;
64816;SDS011;53289;45.602;11.904;2022-10-16T02:46:48;55.25;;;31.63;;
64816;SDS011;53289;45.602;11.904;2022-10-16T02:49:14;59.35;;;31.85;;
64816;SDS011;53289;45.602;11.904;2022-10-16T02:51:40;56.17;;;33.78;;
64816;SDS011;53289;45.602;11.904;2022-10-16T02:54:06;59.28;;;33.13;;
64816;SDS011;53289;45.602;11.904;2022-10-16T02:56:32;55.83;;;32.67;;
64816;SDS011;53289;45.602;11.904;2022-10-16T02:58:58;50.25;;;29.30;;
64816;SDS011;53289;45.602;11.904;2022-10-16T03:01:24;52.38;;;30.05;;
64816;SDS011;53289;45.602;11.904;2022-10-16T03:03:50;54.50;;;31.02;;
64816;SDS011;53289;45.602;11.904;2022-10-16T03:06:16;62.35;;;34.17;;
64816;SDS011;53289;45.602;11.904;2022-10-16T03:08:42;62.60;;;34.97;;
64816;SDS011;53289;45.602;11.904;2022-10-16T03:11:08;56.60;;;32.42;;
64816;SDS011;53289;45.602;11.904;2022-10-16T03:13:34;57.88;;;33.65;;
64816;SDS011;53289;45.602;11.904;2022-10-16T03:16:00;61.67;;;35.88;;
64816;SDS011;53289;45.602;11.904;2022-10-16T03:18:26;64.78;;;37.38;;
64816;SDS011;53289;45.602;11.904;2022-10-16T03:20:52;68.03;;;36.72;;
64816;SDS011;53289;45.602;11.904;2022-10-16T03:23:18;67.00;;;36.15;;
64816;SDS011;53289;45.602;11.904;2022-10-16T03:25:44;59.50;;;34.80;;
64816;SDS011;53289;45.602;11.904;2022-10-16T03:28:10;69.70;;;39.00;;
64816;SDS011;53289;45.602;11.904;2022-10-16T03:30:37;77.93;;;42.60;;
64816;SDS011;53289;45.602;11.904;2022-10-16T03:33:05;73.40;;;40.95;;
64816;SDS011;53289;45.602;11.904;2022-10-16T03:35:32;96.97;;;51.03;;
64816;SDS011;53289;45.602;11.904;2022-10-16T03:37:58;96.28;;;51.45;;
64816;SDS011;53289;45.602;11.904;2022-10-16T03:40:24;93.00;;;49.30;;
64816;SDS011;53289;45.602;11.904;2022-10-16T03:42:50;82.93;;;45.05;;
64816;SDS011;53289;45.602;11.904;2022-10-16T03:45:16;96.28;;;49.30;;
64816;SDS011;53289;45.602;11.904;2022-10-16T03:47:42;98.05;;;52.75;;
64816;SDS011;53289;45.602;11.904;2022-10-16T03:50:08;86.55;;;48.95;;
64816;SDS011;53289;45.602;11.904;2022-10-16T03:52:34;90.32;;;48.90;;
64816;SDS011;53289;45.602;11.904;2022-10-16T03:55:00;89.10;;;48.72;;
64816;SDS011;53289;45.602;11.904;2022-10-16T03:57:26;80.45;;;44.78;;
64816;SDS011;53289;45.602;11.904;2022-10-16T03:59:52;103.43;;;55.55;;
64816;SDS011;53289;45.602;11.904;2022-10-16T04:02:18;95.82;;;50.90;;
64816;SDS011;53289;45.602;11.904;2022-10-16T04:04:44;86.90;;;47.58;;
64816;SDS011;53289;45.602;11.904;2022-10-16T04:07:09;90.03;;;48.85;;
64816;SDS011;53289;45.602;11.904;2022-10-16T04:09:36;81.72;;;45.38;;
64816;SDS011;53289;45.602;11.904;2022-10-16T04:12:01;82.63;;;45.25;;
64816;SDS011;53289;45.602;11.904;2022-10-16T04:14:28;87.15;;;47.25;;
64816;SDS011;53289;45.602;11.904;2022-10-16T04:16:54;82.72;;;46.03;;
64816;SDS011;53289;45.602;11.904;2022-10-16T04:19:20;86.25;;;47.58;;
64816;SDS011;53289;45.602;11.904;2022-10-16T04:21:46;82.50;;;46.95;;
64816;SDS011;53289;45.602;11.904;2022-10-16T04:24:12;98.82;;;51.40;;
64816;SDS011;53289;45.602;11.904;2022-10-16T04:26:38;100.38;;;53.97;;
64816;SDS011;53289;45.602;11.904;2022-10-16T04:29:03;100.35;;;53.20;;
64816;SDS011;53289;45.602;11.904;2022-10-16T04:31:29;95.78;;;49.05;;
64816;SDS011;53289;45.602;11.904;2022-10-16T04:33:55;83.65;;;45.75;;
64816;SDS011;53289;45.602;11.904;2022-10-16T04:36:21;85.10;;;45.53;;
64816;SDS011;53289;45.602;11.904;2022-10-16T04:38:47;89.10;;;48.22;;
64816;SDS011;53289;45.602;11.904;2022-10-16T04:41:13;74.03;;;41.00;;
64816;SDS011;53289;45.602;11.904;2022-10-16T04:43:39;71.78;;;39.42;;
64816;SDS011;53289;45.602;11.904;2022-10-16T04:46:05;69.53;;;38.92;;
64816;SDS011;53289;45.602;11.904;2022-10-16T04:48:31;75.95;;;41.70;;
64816;SDS011;53289;45.602;11.904;2022-10-16T04:50:58;82.65;;;43.67;;
64816;SDS011;53289;45.602;11.904;2022-10-16T04:53:25;70.70;;;37.85;;
64816;SDS011;53289;45.602;11.904;2022-10-16T04:55:50;62.60;;;36.25;;
64816;SDS011;53289;45.602;11.904;2022-10-16T04:58:16;66.35;;;38.83;;
64816;SDS011;53289;45.602;11.904;2022-10-16T05:00:43;67.20;;;38.25;;
64816;SDS011;53289;45.602;11.904;2022-10-16T05:03:11;71.43;;;38.88;;
64816;SDS011;53289;45.602;11.904;2022-10-16T05:05:42;68.60;;;37.47;;
64816;SDS011;53289;45.602;11.904;2022-10-16T05:08:10;72.78;;;41.33;;
64816;SDS011;53289;45.602;11.904;2022-10-16T05:10:37;69.90;;;38.72;;
64816;SDS011;53289;45.602;11.904;2022-10-16T05:13:03;69.25;;;37.05;;
64816;SDS011;53289;45.602;11.904;2022-10-16T05:15:29;67.70;;;36.60;;
64816;SDS011;53289;45.602;11.904;2022-10-16T05:17:55;86.60;;;46.33;;
64816;SDS011;53289;45.602;11.904;2022-10-16T05:20:21;69.30;;;37.60;;
64816;SDS011;53289;45.602;11.904;2022-10-16T05:22:48;80.45;;;41.38;;
64816;SDS011;53289;45.602;11.904;2022-10-16T05:25:14;68.72;;;39.35;;
64816;SDS011;53289;45.602;11.904;2022-10-16T05:27:41;66.88;;;36.08;;
64816;SDS011;53289;45.602;11.904;2022-10-16T05:30:07;65.65;;;36.95;;
64816;SDS011;53289;45.602;11.904;2022-10-16T05:32:33;62.22;;;34.90;;
64816;SDS011;53289;45.602;11.904;2022-10-16T05:34:59;64.80;;;36.58;;
64816;SDS011;53289;45.602;11.904;2022-10-16T05:37:29;71.47;;;37.80;;
64816;SDS011;53289;45.602;11.904;2022-10-16T05:39:54;66.15;;;37.83;;
64816;SDS011;53289;45.602;11.904;2022-10-16T05:42:20;68.65;;;36.97;;
64816;SDS011;53289;45.602;11.904;2022-10-16T05:44:46;62.85;;;35.80;;
64816;SDS011;53289;45.602;11.904;2022-10-16T05:47:12;60.95;;;33.50;;
64816;SDS011;53289;45.602;11.904;2022-10-16T05:49:39;58.35;;;34.50;;
64816;SDS011;53289;45.602;11.904;2022-10-16T05:52:06;62.20;;;34.45;;
64816;SDS011;53289;45.602;11.904;2022-10-16T05:54:31;61.25;;;35.20;;
64816;SDS011;53289;45.602;11.904;2022-10-16T05:56:57;58.97;;;33.65;;
64816;SDS011;53289;45.602;11.904;2022-10-16T05:59:23;57.40;;;31.85;;
64816;SDS011;53289;45.602;11.904;2022-10-16T06:01:49;63.92;;;33.17;;
64816;SDS011;53289;45.602;11.904;2022-10-16T06:04:15;56.28;;;32.15;;
64816;SDS011;53289;45.602;11.904;2022-10-16T06:06:41;51.60;;;31.50;;
64816;SDS011;53289;45.602;11.904;2022-10-16T06:09:07;61.70;;;34.22;;
64816;SDS011;53289;45.602;11.904;2022-10-16T06:11:34;68.18;;;36.70;;
64816;SDS011;53289;45.602;11.904;2022-10-16T06:14:01;61.78;;;35.92;;
64816;SDS011;53289;45.602;11.904;2022-10-16T06:16:31;56.85;;;33.05;;
64816;SDS011;53289;45.602;11.904;2022-10-16T06:18:59;58.97;;;33.10;;
64816;SDS011;53289;45.602;11.904;2022-10-16T06:21:27;57.95;;;32.78;;
64816;SDS011;53289;45.602;11.904;2022-10-16T06:23:54;64.60;;;36.25;;
64816;SDS011;53289;45.602;11.904;2022-10-16T06:26:22;57.22;;;32.47;;
64816;SDS011;53289;45.602;11.904;2022-10-16T06:28:50;57.20;;;31.40;;
64816;SDS011;53289;45.602;11.904;2022-10-16T06:31:16;59.00;;;33.58;;
64816;SDS011;53289;45.602;11.904;2022-10-16T06:33:42;62.22;;;34.08;;
64816;SDS011;53289;45.602;11.904;2022-10-16T06:36:14;61.53;;;33.22;;
64816;SDS011;53289;45.602;11.904;2022-10-16T06:41:09;55.75;;;29.50;;
64816;SDS011;53289;45.602;11.904;2022-10-16T06:43:38;70.78;;;40.33;;
64816;SDS011;53289;45.602;11.904;2022-10-16T06:46:05;70.53;;;39.63;;
64816;SDS011;53289;45.602;11.904;2022-10-16T06:48:35;64.63;;;37.28;;
64816;SDS011;53289;45.602;11.904;2022-10-16T06:51:06;69.13;;;35.92;;
64816;SDS011;53289;45.602;11.904;2022-10-16T06:53:37;61.17;;;35.97;;
64816;SDS011;53289;45.602;11.904;2022-10-16T06:56:13;56.35;;;32.03;;
64816;SDS011;53289;45.602;11.904;2022-10-16T06:58:40;65.85;;;37.45;;
64816;SDS011;53289;45.602;11.904;2022-10-16T07:01:07;66.53;;;38.67;;
64816;SDS011;53289;45.602;11.904;2022-10-16T07:03:35;62.28;;;38.28;;
64816;SDS011;53289;45.602;11.904;2022-10-16T07:06:03;68.13;;;38.70;;
64816;SDS011;53289;45.602;11.904;2022-10-16T07:08:35;65.88;;;37.28;;
64816;SDS011;53289;45.602;11.904;2022-10-16T07:11:03;65.43;;;39.78;;
64816;SDS011;53289;45.602;11.904;2022-10-16T07:13:34;72.60;;;42.55;;
64816;SDS011;53289;45.602;11.904;2022-10-16T07:16:04;73.80;;;43.63;;
64816;SDS011;53289;45.602;11.904;2022-10-16T07:18:35;69.78;;;41.05;;
64816;SDS011;53289;45.602;11.904;2022-10-16T07:21:04;62.25;;;38.13;;
64816;SDS011;53289;45.602;11.904;2022-10-16T07:23:34;78.82;;;45.10;;
64816;SDS011;53289;45.602;11.904;2022-10-16T07:25:59;69.35;;;41.15;;
64816;SDS011;53289;45.602;11.904;2022-10-16T07:28:26;74.88;;;42.38;;
64816;SDS011;53289;45.602;11.904;2022-10-16T07:30:52;74.40;;;43.00;;
64816;SDS011;53289;45.602;11.904;2022-10-16T07:33:18;70.20;;;42.67;;
64816;SDS011;53289;45.602;11.904;2022-10-16T07:35:50;75.03;;;44.00;;
64816;SDS011;53289;45.602;11.904;2022-10-16T07:38:17;74.10;;;43.63;;
64816;SDS011;53289;45.602;11.904;2022-10-16T07:40:43;72.70;;;44.53;;
64816;SDS011;53289;45.602;11.904;2022-10-16T07:43:10;79.15;;;47.35;;
64816;SDS011;53289;45.602;11.904;2022-10-16T07:45:36;73.30;;;42.97;;
64816;SDS011;53289;45.602;11.904;2022-10-16T07:48:02;75.93;;;45.92;;
64816;SDS011;53289;45.602;11.904;2022-10-16T07:50:28;65.57;;;40.63;;
64816;SDS011;53289;45.602;11.904;2022-10-16T07:52:54;72.97;;;43.35;;
64816;SDS011;53289;45.602;11.904;2022-10-16T07:55:20;63.72;;;38.28;;
64816;SDS011;53289;45.602;11.904;2022-10-16T07:57:45;75.95;;;46.67;;
64816;SDS011;53289;45.602;11.904;2022-10-16T08:00:11;68.90;;;43.80;;
64816;SDS011;53289;45.602;11.904;2022-10-16T08:02:39;75.55;;;45.83;;
64816;SDS011;53289;45.602;11.904;2022-10-16T08:05:05;74.88;;;43.15;;
64816;SDS011;53289;45.602;11.904;2022-10-16T08:07:32;72.28;;;44.35;;
64816;SDS011;53289;45.602;11.904;2022-10-16T08:09:58;63.72;;;39.42;;
64816;SDS011;53289;45.602;11.904;2022-10-16T08:12:25;65.20;;;39.63;;
64816;SDS011;53289;45.602;11.904;2022-10-16T08:14:51;68.72;;;42.35;;
64816;SDS011;53289;45.602;11.904;2022-10-16T08:17:17;67.72;;;41.13;;
64816;SDS011;53289;45.602;11.904;2022-10-16T08:19:46;73.18;;;42.28;;
64816;SDS011;53289;45.602;11.904;2022-10-16T08:22:13;70.95;;;43.13;;
64816;SDS011;53289;45.602;11.904;2022-10-16T08:24:40;68.80;;;41.33;;
64816;SDS011;53289;45.602;11.904;2022-10-16T08:27:06;69.90;;;42.53;;
64816;SDS011;53289;45.602;11.904;2022-10-16T08:29:34;67.10;;;41.55;;
64816;SDS011;53289;45.602;11.904;2022-10-16T08:32:00;65.68;;;41.33;;
64816;SDS011;53289;45.602;11.904;2022-10-16T08:34:26;60.13;;;37.70;;
64816;SDS011;53289;45.602;11.904;2022-10-16T08:36:54;62.25;;;38.78;;
64816;SDS011;53289;45.602;11.904;2022-10-16T08:39:20;56.50;;;35.75;;
64816;SDS011;53289;45.602;11.904;2022-10-16T08:47:54;56.42;;;34.72;;
64816;SDS011;53289;45.602;11.904;2022-10-16T08:50:26;66.47;;;40.17;;
64816;SDS011;53289;45.602;11.904;2022-10-16T08:52:54;61.28;;;39.22;;
64816;SDS011;53289;45.602;11.904;2022-10-16T08:57:53;55.28;;;36.35;;
64816;SDS011;53289;45.602;11.904;2022-10-16T09:00:19;58.17;;;37.80;;
64816;SDS011;53289;45.602;11.904;2022-10-16T09:11:08;47.15;;;32.00;;
64816;SDS011;53289;45.602;11.904;2022-10-16T09:21:40;59.92;;;37.35;;
64816;SDS011;53289;45.602;11.904;2022-10-16T09:24:13;50.97;;;32.72;;
64816;SDS011;53289;45.602;11.904;2022-10-16T09:26:41;55.28;;;38.15;;
64816;SDS011;53289;45.602;11.904;2022-10-16T09:29:15;52.47;;;35.47;;
64816;SDS011;53289;45.602;11.904;2022-10-16T09:34:13;56.15;;;36.75;;
64816;SDS011;53289;45.602;11.904;2022-10-16T09:36:52;54.78;;;35.72;;
64816;SDS011;53289;45.602;11.904;2022-10-16T09:39:19;51.65;;;35.38;;
64816;SDS011;53289;45.602;11.904;2022-10-16T09:41:44;62.22;;;40.20;;
64816;SDS011;53289;45.602;11.904;2022-10-16T09:44:24;52.95;;;35.80;;
64816;SDS011;53289;45.602;11.904;2022-10-16T09:47:01;56.13;;;38.53;;
64816;SDS011;53289;45.602;11.904;2022-10-16T09:49:27;55.50;;;36.13;;
64816;SDS011;53289;45.602;11.904;2022-10-16T09:52:03;41.22;;;28.23;;
64816;SDS011;53289;45.602;11.904;2022-10-16T09:54:49;47.35;;;32.67;;
64816;SDS011;53289;45.602;11.904;2022-10-16T09:57:19;51.75;;;35.53;;
64816;SDS011;53289;45.602;11.904;2022-10-16T09:59:50;49.28;;;33.67;;
64816;SDS011;53289;45.602;11.904;2022-10-16T10:07:54;36.22;;;25.52;;
64816;SDS011;53289;45.602;11.904;2022-10-16T10:10:28;35.60;;;26.02;;
64816;SDS011;53289;45.602;11.904;2022-10-16T10:12:57;52.60;;;36.55;;
64816;SDS011;53289;45.602;11.904;2022-10-16T10:15:24;39.35;;;27.85;;
64816;SDS011;53289;45.602;11.904;2022-10-16T10:17:53;40.28;;;27.48;;
64816;SDS011;53289;45.602;11.904;2022-10-16T10:20:30;40.30;;;29.05;;
64816;SDS011;53289;45.602;11.904;2022-10-16T10:23:00;35.25;;;26.55;;
64816;SDS011;53289;45.602;11.904;2022-10-16T10:25:38;38.38;;;26.42;;
64816;SDS011;53289;45.602;11.904;2022-10-16T10:30:55;34.67;;;24.63;;
64816;SDS011;53289;45.602;11.904;2022-10-16T10:36:28;40.63;;;27.60;;
64816;SDS011;53289;45.602;11.904;2022-10-16T10:39:01;36.03;;;26.10;;
64816;SDS011;53289;45.602;11.904;2022-10-16T10:41:52;41.53;;;29.38;;
64816;SDS011;53289;45.602;11.904;2022-10-16T10:49:57;36.80;;;25.98;;
64816;SDS011;53289;45.602;11.904;2022-10-16T10:52:34;31.08;;;22.90;;
64816;SDS011;53289;45.602;11.904;2022-10-16T10:58:29;33.55;;;24.35;;
64816;SDS011;53289;45.602;11.904;2022-10-16T11:01:10;37.80;;;28.13;;
64816;SDS011;53289;45.602;11.904;2022-10-16T11:03:55;34.78;;;25.65;;
64816;SDS011;53289;45.602;11.904;2022-10-16T11:06:30;38.50;;;27.60;;
64816;SDS011;53289;45.602;11.904;2022-10-16T11:09:30;35.17;;;24.73;;
64816;SDS011;53289;45.602;11.904;2022-10-16T11:14:55;36.78;;;26.10;;
64816;SDS011;53289;45.602;11.904;2022-10-16T11:17:42;37.25;;;27.67;;
64816;SDS011;53289;45.602;11.904;2022-10-16T11:20:24;38.03;;;27.83;;
64816;SDS011;53289;45.602;11.904;2022-10-16T11:25:33;34.03;;;22.15;;
64816;SDS011;53289;45.602;11.904;2022-10-16T11:28:15;32.22;;;24.83;;
64816;SDS011;53289;45.602;11.904;2022-10-16T11:30:53;33.25;;;23.73;;
64816;SDS011;53289;45.602;11.904;2022-10-16T11:33:44;33.72;;;24.63;;
64816;SDS011;53289;45.602;11.904;2022-10-16T11:36:27;31.65;;;22.48;;
64816;SDS011;53289;45.602;11.904;2022-10-16T11:41:34;29.55;;;21.98;;
64816;SDS011;53289;45.602;11.904;2022-10-16T11:46:58;28.08;;;21.17;;
64816;SDS011;53289;45.602;11.904;2022-10-16T11:49:27;29.15;;;22.70;;
64816;SDS011;53289;45.602;11.904;2022-10-16T11:52:08;30.17;;;21.77;;
64816;SDS011;53289;45.602;11.904;2022-10-16T11:54:47;32.83;;;24.35;;
64816;SDS011;53289;45.602;11.904;2022-10-16T11:57:33;29.13;;;21.52;;
64816;SDS011;53289;45.602;11.904;2022-10-16T12:00:09;30.55;;;23.77;;
64816;SDS011;53289;45.602;11.904;2022-10-16T12:03:20;28.33;;;21.10;;
64816;SDS011;53289;45.602;11.904;2022-10-16T12:08:22;28.50;;;21.25;;
64816;SDS011;53289;45.602;11.904;2022-10-16T12:10:49;29.98;;;22.73;;
64816;SDS011;53289;45.602;11.904;2022-10-16T12:18:33;29.90;;;23.35;;
64816;SDS011;53289;45.602;11.904;2022-10-16T12:20:59;36.17;;;26.42;;
64816;SDS011;53289;45.602;11.904;2022-10-16T12:23:38;29.88;;;22.10;;
64816;SDS011;53289;45.602;11.904;2022-10-16T12:26:12;29.65;;;23.50;;
64816;SDS011;53289;45.602;11.904;2022-10-16T12:28:38;30.50;;;23.05;;
64816;SDS011;53289;45.602;11.904;2022-10-16T12:31:06;28.45;;;22.98;;
64816;SDS011;53289;45.602;11.904;2022-10-16T12:33:36;35.80;;;27.60;;
64816;SDS011;53289;45.602;11.904;2022-10-16T12:36:10;30.40;;;23.88;;
64816;SDS011;53289;45.602;11.904;2022-10-16T12:38:48;30.85;;;22.90;;
64816;SDS011;53289;45.602;11.904;2022-10-16T12:41:27;33.92;;;26.40;;
64816;SDS011;53289;45.602;11.904;2022-10-16T12:43:58;28.90;;;22.67;;
64816;SDS011;53289;45.602;11.904;2022-10-16T12:49:04;29.33;;;22.52;;
64816;SDS011;53289;45.602;11.904;2022-10-16T13:00:02;32.20;;;23.00;;
64816;SDS011;53289;45.602;11.904;2022-10-16T13:19:48;25.90;;;20.58;;
64816;SDS011;53289;45.602;11.904;2022-10-16T13:28:02;25.35;;;20.10;;
64816;SDS011;53289;45.602;11.904;2022-10-16T13:30:31;25.03;;;20.97;;
64816;SDS011;53289;45.602;11.904;2022-10-16T13:35:48;28.08;;;22.50;;
64816;SDS011;53289;45.602;11.904;2022-10-16T13:38:17;29.83;;;21.33;;
64816;SDS011;53289;45.602;11.904;2022-10-16T13:40:57;26.02;;;21.05;;
64816;SDS011;53289;45.602;11.904;2022-10-16T13:45:59;26.17;;;20.88;;
64816;SDS011;53289;45.602;11.904;2022-10-16T13:48:28;26.52;;;20.60;;
64816;SDS011;53289;45.602;11.904;2022-10-16T13:53:33;26.55;;;20.85;;
64816;SDS011;53289;45.602;11.904;2022-10-16T13:56:02;27.10;;;21.00;;
64816;SDS011;53289;45.602;11.904;2022-10-16T13:58:30;40.95;;;31.00;;
64816;SDS011;53289;45.602;11.904;2022-10-16T14:00:57;29.92;;;22.35;;
64816;SDS011;53289;45.602;11.904;2022-10-16T14:03:26;36.60;;;27.10;;
64816;SDS011;53289;45.602;11.904;2022-10-16T14:05:56;28.10;;;21.63;;
64816;SDS011;53289;45.602;11.904;2022-10-16T14:08:26;28.60;;;22.25;;
64816;SDS011;53289;45.602;11.904;2022-10-16T14:10:54;31.02;;;22.75;;
64816;SDS011;53289;45.602;11.904;2022-10-16T14:13:34;27.77;;;21.23;;
64816;SDS011;53289;45.602;11.904;2022-10-16T14:16:16;28.60;;;22.60;;
64816;SDS011;53289;45.602;11.904;2022-10-16T14:18:52;37.55;;;28.17;;
64816;SDS011;53289;45.602;11.904;2022-10-16T14:21:22;26.10;;;20.27;;
64816;SDS011;53289;45.602;11.904;2022-10-16T14:23:49;29.35;;;23.75;;
64816;SDS011;53289;45.602;11.904;2022-10-16T14:26:17;32.70;;;25.00;;
64816;SDS011;53289;45.602;11.904;2022-10-16T14:28:46;31.85;;;25.42;;
64816;SDS011;53289;45.602;11.904;2022-10-16T14:33:45;27.90;;;22.23;;
64816;SDS011;53289;45.602;11.904;2022-10-16T14:36:12;26.08;;;20.42;;
64816;SDS011;53289;45.602;11.904;2022-10-16T14:38:41;28.25;;;20.25;;
64816;SDS011;53289;45.602;11.904;2022-10-16T14:41:13;27.00;;;21.08;;
64816;SDS011;53289;45.602;11.904;2022-10-16T14:43:41;36.83;;;25.50;;
64816;SDS011;53289;45.602;11.904;2022-10-16T14:46:19;38.30;;;28.95;;
64816;SDS011;53289;45.602;11.904;2022-10-16T14:51:39;25.73;;;20.23;;
64816;SDS011;53289;45.602;11.904;2022-10-16T14:54:10;25.88;;;20.25;;
64816;SDS011;53289;45.602;11.904;2022-10-16T14:59:40;26.83;;;20.80;;
64816;SDS011;53289;45.602;11.904;2022-10-16T15:04:56;24.27;;;19.90;;
64816;SDS011;53289;45.602;11.904;2022-10-16T15:07:23;28.17;;;21.33;;
64816;SDS011;53289;45.602;11.904;2022-10-16T15:09:50;30.52;;;21.73;;
64816;SDS011;53289;45.602;11.904;2022-10-16T15:12:16;29.02;;;22.45;;
64816;SDS011;53289;45.602;11.904;2022-10-16T15:14:43;29.00;;;21.02;;
64816;SDS011;53289;45.602;11.904;2022-10-16T15:17:10;28.52;;;20.35;;
64816;SDS011;53289;45.602;11.904;2022-10-16T15:19:36;26.33;;;20.33;;
64816;SDS011;53289;45.602;11.904;2022-10-16T15:22:02;26.60;;;20.35;;
64816;SDS011;53289;45.602;11.904;2022-10-16T15:24:28;25.92;;;20.67;;
64816;SDS011;53289;45.602;11.904;2022-10-16T15:26:54;28.77;;;21.33;;
64816;SDS011;53289;45.602;11.904;2022-10-16T15:29:20;28.30;;;21.30;;
64816;SDS011;53289;45.602;11.904;2022-10-16T15:31:46;25.60;;;19.45;;
64816;SDS011;53289;45.602;11.904;2022-10-16T15:34:12;27.20;;;21.38;;
64816;SDS011;53289;45.602;11.904;2022-10-16T15:36:39;26.48;;;20.15;;
64816;SDS011;53289;45.602;11.904;2022-10-16T15:39:08;27.45;;;20.77;;
64816;SDS011;53289;45.602;11.904;2022-10-16T15:41:44;29.73;;;21.58;;
64816;SDS011;53289;45.602;11.904;2022-10-16T15:44:16;32.92;;;22.35;;
64816;SDS011;53289;45.602;11.904;2022-10-16T15:46:42;26.48;;;19.80;;
64816;SDS011;53289;45.602;11.904;2022-10-16T15:49:09;28.92;;;21.80;;
64816;SDS011;53289;45.602;11.904;2022-10-16T15:51:39;29.15;;;21.63;;
64816;SDS011;53289;45.602;11.904;2022-10-16T15:54:08;33.92;;;23.23;;
64816;SDS011;53289;45.602;11.904;2022-10-16T15:56:34;29.85;;;21.23;;
64816;SDS011;53289;45.602;11.904;2022-10-16T15:59:02;29.50;;;21.23;;
64816;SDS011;53289;45.602;11.904;2022-10-16T16:01:32;32.55;;;22.33;;
64816;SDS011;53289;45.602;11.904;2022-10-16T16:03:59;28.42;;;21.73;;
64816;SDS011;53289;45.602;11.904;2022-10-16T16:06:25;31.27;;;22.83;;
64816;SDS011;53289;45.602;11.904;2022-10-16T16:08:51;30.48;;;22.38;;
64816;SDS011;53289;45.602;11.904;2022-10-16T16:11:17;28.67;;;21.30;;
64816;SDS011;53289;45.602;11.904;2022-10-16T16:13:44;30.05;;;21.77;;
64816;SDS011;53289;45.602;11.904;2022-10-16T16:16:11;30.83;;;22.02;;
64816;SDS011;53289;45.602;11.904;2022-10-16T16:18:39;35.65;;;25.35;;
64816;SDS011;53289;45.602;11.904;2022-10-16T16:21:06;33.15;;;23.15;;
64816;SDS011;53289;45.602;11.904;2022-10-16T16:23:32;30.20;;;22.95;;
64816;SDS011;53289;45.602;11.904;2022-10-16T16:28:32;33.45;;;23.52;;
64816;SDS011;53289;45.602;11.904;2022-10-16T16:30:59;31.50;;;23.08;;
64816;SDS011;53289;45.602;11.904;2022-10-16T16:33:24;32.92;;;23.85;;
64816;SDS011;53289;45.602;11.904;2022-10-16T16:35:50;32.38;;;22.45;;
64816;SDS011;53289;45.602;11.904;2022-10-16T16:38:22;32.05;;;23.20;;
64816;SDS011;53289;45.602;11.904;2022-10-16T16:40:48;32.00;;;22.17;;
64816;SDS011;53289;45.602;11.904;2022-10-16T16:43:14;30.08;;;21.95;;
64816;SDS011;53289;45.602;11.904;2022-10-16T16:45:40;31.15;;;21.90;;
64816;SDS011;53289;45.602;11.904;2022-10-16T16:48:06;35.47;;;23.60;;
64816;SDS011;53289;45.602;11.904;2022-10-16T16:50:38;34.67;;;24.98;;
64816;SDS011;53289;45.602;11.904;2022-10-16T16:53:04;29.70;;;21.20;;